createdAt,value
2023-03-02T00:01:57.781Z,21.40
2023-03-02T00:07:05.188Z,20.90
2023-03-02T00:09:33.923Z,21.80
2023-03-02T00:12:04.423Z,21.80
2023-03-02T00:14:32.383Z,23.40
2023-03-02T00:17:04.901Z,21.00
2023-03-02T00:19:33.495Z,23.10
2023-03-02T00:22:02.756Z,23.30
2023-03-02T00:24:31.545Z,24.90
2023-03-02T00:26:59.812Z,23.80
2023-03-02T00:29:27.919Z,24.70
2023-03-02T00:31:56.028Z,26.70
2023-03-02T00:34:24.250Z,25.40
2023-03-02T00:36:52.402Z,25.90
2023-03-02T00:39:20.585Z,28.40
2023-03-02T00:41:48.721Z,26.70
2023-03-02T00:44:20.253Z,27.60
2023-03-02T00:46:48.471Z,27.50
2023-03-02T00:49:16.763Z,26.80
2023-03-02T00:51:45.797Z,28.70
2023-03-02T00:54:16.795Z,27.20
2023-03-02T00:56:45.231Z,26.00
2023-03-02T00:59:28.651Z,27.40
2023-03-02T01:02:02.638Z,27.50
2023-03-02T01:04:38.277Z,32.70
2023-03-02T01:07:14.774Z,28.90
2023-03-02T01:09:44.892Z,30.40
2023-03-02T01:12:13.030Z,29.70
2023-03-02T01:14:46.500Z,27.10
2023-03-02T01:17:15.320Z,28.40
2023-03-02T01:19:43.402Z,33.20
2023-03-02T01:22:12.090Z,28.90
2023-03-02T01:24:40.668Z,28.70
2023-03-02T01:27:09.117Z,26.40
2023-03-02T01:29:37.928Z,28.70
2023-03-02T01:32:06.075Z,32.00
2023-03-02T01:34:34.261Z,29.90
2023-03-02T01:37:02.272Z,31.10
2023-03-02T01:39:30.344Z,28.80
2023-03-02T01:44:48.319Z,32.70
2023-03-02T01:47:23.921Z,27.10
2023-03-02T01:52:37.633Z,25.40
2023-03-02T01:55:11.524Z,30.40
2023-03-02T01:57:44.406Z,28.70
2023-03-02T02:00:20.528Z,31.50
2023-03-02T02:02:50.155Z,31.40
2023-03-02T02:05:24.963Z,29.40
2023-03-02T02:07:53.085Z,35.30
2023-03-02T02:12:48.884Z,29.60
2023-03-02T02:17:46.005Z,31.00
2023-03-02T02:20:45.837Z,30.90
2023-03-02T02:23:58.663Z,31.50
2023-03-02T02:29:22.037Z,32.10
2023-03-02T02:32:01.116Z,31.40
2023-03-02T02:34:51.218Z,28.00
2023-03-02T02:37:26.441Z,30.60
2023-03-02T02:39:55.173Z,35.10
2023-03-02T02:42:52.907Z,31.90
2023-03-02T02:45:27.060Z,33.70
2023-03-02T02:47:56.587Z,29.30
2023-03-02T02:50:34.943Z,31.40
2023-03-02T02:53:14.042Z,29.60
2023-03-02T02:55:43.117Z,27.90
2023-03-02T02:58:36.948Z,34.90
2023-03-02T03:01:07.322Z,37.90
2023-03-02T03:03:39.313Z,28.10
2023-03-02T03:06:19.100Z,34.60
2023-03-02T03:08:47.062Z,34.60
2023-03-02T03:11:25.879Z,32.00
2023-03-02T03:14:04.058Z,35.50
2023-03-02T03:16:36.114Z,31.90
2023-03-02T03:21:57.949Z,39.50
2023-03-02T03:24:28.695Z,34.20
2023-03-02T03:26:57.967Z,31.30
2023-03-02T03:29:28.667Z,30.90
2023-03-02T03:32:01.373Z,34.80
2023-03-02T03:34:32.520Z,32.40
2023-03-02T03:37:02.360Z,34.00
2023-03-02T03:39:34.225Z,34.50
2023-03-02T03:42:03.282Z,37.30
2023-03-02T03:44:32.463Z,35.70
2023-03-02T03:47:00.447Z,37.50
2023-03-02T03:51:58.259Z,47.50
2023-03-02T03:54:26.497Z,48.10
2023-03-02T03:56:55.214Z,44.30
2023-03-02T03:59:25.546Z,33.50
2023-03-02T04:02:00.944Z,32.50
2023-03-02T04:04:35.386Z,27.80
2023-03-02T04:07:08.870Z,31.40
2023-03-02T04:09:38.737Z,32.90
2023-03-02T04:12:11.389Z,33.50
2023-03-02T04:14:45.052Z,29.70
2023-03-02T04:17:13.464Z,32.70
2023-03-02T04:19:45.153Z,31.00
2023-03-02T04:22:15.006Z,32.00
2023-03-02T04:24:43.585Z,35.40
2023-03-02T04:27:12.572Z,35.00
2023-03-02T04:29:40.849Z,33.50
2023-03-02T04:32:09.328Z,36.20
2023-03-02T04:34:39.154Z,34.80
2023-03-02T04:37:07.572Z,34.20
2023-03-02T04:42:03.557Z,34.90
2023-03-02T04:46:59.367Z,36.60
2023-03-02T04:49:27.815Z,35.10
2023-03-02T04:51:55.892Z,30.70
2023-03-02T04:54:26.502Z,37.30
2023-03-02T04:56:55.634Z,37.10
2023-03-02T04:59:27.807Z,33.50
2023-03-02T05:01:59.170Z,32.90
2023-03-02T05:04:28.975Z,35.70
2023-03-02T05:06:57.648Z,30.20
2023-03-02T05:09:30.289Z,31.60
2023-03-02T05:12:01.012Z,34.20
2023-03-02T05:14:30.864Z,35.50
2023-03-02T05:16:59.066Z,31.60
2023-03-02T05:19:27.575Z,35.00
2023-03-02T05:21:56.606Z,37.10
2023-03-02T05:24:24.895Z,36.90
2023-03-02T05:26:52.982Z,36.50
2023-03-02T05:29:21.768Z,37.30
2023-03-02T05:31:50.072Z,43.30
2023-03-02T05:34:18.251Z,38.70
2023-03-02T05:36:46.416Z,37.20
2023-03-02T05:39:14.456Z,38.50
2023-03-02T05:41:42.621Z,38.90
2023-03-02T05:44:12.076Z,35.60
2023-03-02T05:46:42.523Z,33.20
2023-03-02T05:49:11.162Z,36.40
2023-03-02T05:51:41.164Z,32.30
2023-03-02T05:54:09.285Z,30.60
2023-03-02T05:56:37.984Z,35.60
2023-03-02T05:59:06.029Z,33.40
2023-03-02T06:04:03.168Z,29.60
2023-03-02T06:06:33.918Z,26.40
2023-03-02T06:09:02.459Z,33.70
2023-03-02T06:11:30.912Z,31.10
2023-03-02T06:13:59.127Z,37.80
2023-03-02T06:16:28.250Z,33.20
2023-03-02T06:18:56.208Z,31.30
2023-03-02T06:23:52.368Z,37.40
2023-03-02T06:26:20.426Z,29.90
2023-03-02T06:28:53.595Z,38.60
2023-03-02T06:31:22.122Z,44.10
2023-03-02T06:33:51.684Z,34.90
2023-03-02T06:36:21.287Z,39.90
2023-03-02T06:38:49.630Z,38.00
2023-03-02T06:41:17.785Z,41.70
2023-03-02T06:43:46.382Z,36.50
2023-03-02T06:46:14.729Z,37.10
2023-03-02T06:48:43.510Z,32.80
2023-03-02T06:51:12.180Z,37.60
2023-03-02T06:53:41.329Z,34.90
2023-03-02T06:56:11.022Z,33.60
2023-03-02T07:01:08.425Z,29.00
2023-03-02T07:03:36.801Z,36.50
2023-03-02T07:06:06.523Z,37.70
2023-03-02T07:08:38.466Z,40.60
2023-03-02T07:11:10.135Z,31.10
2023-03-02T07:13:40.045Z,43.90
2023-03-02T07:16:11.490Z,32.10
2023-03-02T07:18:43.784Z,24.40
2023-03-02T07:21:16.801Z,38.90
2023-03-02T07:23:46.787Z,31.20
2023-03-02T07:26:15.828Z,37.90
2023-03-02T07:28:45.123Z,36.00
2023-03-02T07:31:13.323Z,45.40
2023-03-02T07:33:41.408Z,33.10
2023-03-02T07:36:09.971Z,30.20
2023-03-02T07:38:38.420Z,28.20
2023-03-02T07:41:09.032Z,34.20
2023-03-02T07:43:37.844Z,32.70
2023-03-02T07:46:06.394Z,31.40
2023-03-02T07:48:34.642Z,32.70
2023-03-02T07:51:05.228Z,37.90
2023-03-02T07:53:33.462Z,32.80
2023-03-02T07:56:10.495Z,26.90
2023-03-02T07:58:38.876Z,35.50
2023-03-02T08:01:08.804Z,40.80
2023-03-02T08:03:37.203Z,28.20
2023-03-02T08:06:08.096Z,32.80
2023-03-02T08:08:37.619Z,30.30
2023-03-02T08:11:17.777Z,46.50
2023-03-02T08:13:47.560Z,32.90
2023-03-02T08:16:20.184Z,28.30
2023-03-02T08:18:48.404Z,28.30
2023-03-02T08:21:19.419Z,29.40
2023-03-02T08:23:48.047Z,29.10
2023-03-02T08:26:18.056Z,29.20
2023-03-02T08:28:46.799Z,34.60
2023-03-02T08:31:16.048Z,30.90
2023-03-02T08:33:45.414Z,29.60
2023-03-02T08:36:18.812Z,27.80
2023-03-02T08:38:50.144Z,28.30
2023-03-02T08:41:25.660Z,26.50
2023-03-02T08:43:56.181Z,34.30
2023-03-02T08:46:27.740Z,34.70
2023-03-02T08:48:56.087Z,25.00
2023-03-02T08:51:26.817Z,28.20
2023-03-02T08:53:57.603Z,20.30
2023-03-02T09:00:31.554Z,27.80
2023-03-02T09:02:59.807Z,38.90
2023-03-02T09:05:28.438Z,24.40
2023-03-02T09:07:56.626Z,25.30
2023-03-02T09:10:24.899Z,25.80
2023-03-02T09:12:53.087Z,24.80
2023-03-02T09:15:21.185Z,20.60
2023-03-02T09:17:49.457Z,33.60
2023-03-02T09:20:17.968Z,27.10
2023-03-02T09:22:50.132Z,20.20
2023-03-02T09:25:18.750Z,18.10
2023-03-02T09:28:23.993Z,21.10
2023-03-02T09:30:56.891Z,20.80
2023-03-02T09:33:26.077Z,23.00
2023-03-02T09:35:54.326Z,15.90
2023-03-02T09:38:23.243Z,19.30
2023-03-02T09:41:18.938Z,13.40
2023-03-02T09:44:01.895Z,19.30
2023-03-02T09:46:47.509Z,21.50
2023-03-02T09:49:43.334Z,25.30
2023-03-02T09:52:36.257Z,19.90
2023-03-02T09:55:21.837Z,18.50
2023-03-02T09:57:50.391Z,24.50
2023-03-02T10:00:30.237Z,17.60
2023-03-02T10:03:16.720Z,12.00
2023-03-02T10:05:53.885Z,12.60
2023-03-02T10:08:29.493Z,22.90
2023-03-02T10:11:41.727Z,13.90
2023-03-02T10:14:38.462Z,17.70
2023-03-02T10:17:16.687Z,18.20
2023-03-02T10:19:53.363Z,23.50
2023-03-02T10:22:41.955Z,21.30
2023-03-02T10:25:37.579Z,23.30
2023-03-02T10:28:18.901Z,22.30
2023-03-02T10:30:57.818Z,37.90
2023-03-02T10:33:27.166Z,18.90
2023-03-02T10:35:55.152Z,17.00
2023-03-02T10:38:24.659Z,25.40
2023-03-02T10:41:03.180Z,20.50
2023-03-02T10:43:57.907Z,20.20
2023-03-02T10:46:26.253Z,17.80
2023-03-02T10:48:57.714Z,18.30
2023-03-02T10:51:35.107Z,16.00
2023-03-02T10:54:10.373Z,16.20
2023-03-02T10:56:42.873Z,20.00
2023-03-02T10:59:26.525Z,37.60
2023-03-02T11:02:24.765Z,20.30
2023-03-02T11:05:12.095Z,17.90
2023-03-02T11:07:40.167Z,20.20
2023-03-02T11:10:23.385Z,19.70
2023-03-02T11:12:53.153Z,19.90
2023-03-02T11:15:35.328Z,23.30
2023-03-02T11:18:24.432Z,19.00
2023-03-02T11:21:01.208Z,23.40
2023-03-02T11:23:47.284Z,13.90
2023-03-02T11:26:24.819Z,15.20
2023-03-02T11:29:22.810Z,20.30
2023-03-02T11:31:56.569Z,17.40
2023-03-02T11:34:51.636Z,17.50
2023-03-02T11:37:48.182Z,15.60
2023-03-02T11:40:36.205Z,18.40
2023-03-02T11:43:04.497Z,16.60
2023-03-02T11:45:37.636Z,25.70
2023-03-02T11:48:05.722Z,22.60
2023-03-02T11:50:46.997Z,18.50
2023-03-02T11:53:19.004Z,19.20
2023-03-02T11:55:50.069Z,17.00
2023-03-02T11:58:23.675Z,23.60
2023-03-02T12:00:54.227Z,20.40
2023-03-02T12:03:31.535Z,19.10
2023-03-02T12:06:24.528Z,15.90
2023-03-02T12:11:22.682Z,29.70
2023-03-02T12:14:28.290Z,38.50
2023-03-02T12:17:31.037Z,18.30
2023-03-02T12:20:07.935Z,16.00
2023-03-02T12:22:37.177Z,34.50
2023-03-02T12:25:28.372Z,17.40
2023-03-02T12:27:56.660Z,16.10
2023-03-02T12:30:29.833Z,29.10
2023-03-02T12:33:21.450Z,17.90
2023-03-02T12:35:52.346Z,21.80
2023-03-02T12:38:37.015Z,18.40
2023-03-02T12:41:46.347Z,20.40
2023-03-02T12:44:56.557Z,19.10
2023-03-02T12:47:30.670Z,19.50
2023-03-02T12:50:05.087Z,18.10
2023-03-02T12:52:36.509Z,17.70
2023-03-02T12:55:19.726Z,16.80
2023-03-02T12:58:00.551Z,16.70
2023-03-02T13:00:34.165Z,17.10
2023-03-02T13:03:02.537Z,18.50
2023-03-02T13:05:34.990Z,17.60
2023-03-02T13:08:18.018Z,22.30
2023-03-02T13:10:53.383Z,22.20
2023-03-02T13:13:42.765Z,15.50
2023-03-02T13:16:27.620Z,19.80
2023-03-02T13:19:02.197Z,18.70
2023-03-02T13:21:37.048Z,16.40
2023-03-02T13:24:33.270Z,18.00
2023-03-02T13:27:07.785Z,16.80
2023-03-02T13:29:36.082Z,23.80
2023-03-02T13:32:38.424Z,23.20
2023-03-02T13:35:24.967Z,22.30
2023-03-02T13:38:04.426Z,18.30
2023-03-02T13:40:47.945Z,22.20
2023-03-02T13:43:39.419Z,15.70
2023-03-02T13:46:13.428Z,17.50
2023-03-02T13:48:57.601Z,15.40
2023-03-02T13:51:36.763Z,23.60
2023-03-02T13:54:21.997Z,28.10
2023-03-02T13:56:52.942Z,19.70
2023-03-02T13:59:22.441Z,22.80
2023-03-02T14:01:50.995Z,18.70
2023-03-02T14:04:22.665Z,24.70
2023-03-02T14:06:53.659Z,19.90
2023-03-02T14:09:22.056Z,14.50
2023-03-02T14:11:55.286Z,15.60
2023-03-02T14:14:26.430Z,19.70
2023-03-02T14:16:54.864Z,25.90
2023-03-02T14:19:23.038Z,20.70
2023-03-02T14:21:51.178Z,15.40
2023-03-02T14:24:19.217Z,17.50
2023-03-02T14:26:48.854Z,15.20
2023-03-02T14:29:32.876Z,18.10
2023-03-02T14:32:04.146Z,17.20
2023-03-02T14:34:35.500Z,14.50
2023-03-02T14:37:12.900Z,13.20
2023-03-02T14:39:55.258Z,16.60
2023-03-02T14:42:23.839Z,19.00
2023-03-02T14:44:52.615Z,20.40
2023-03-02T14:47:21.247Z,22.20
2023-03-02T14:49:49.426Z,27.20
2023-03-02T14:52:33.026Z,24.20
2023-03-02T14:55:12.537Z,21.50
2023-03-02T14:57:40.759Z,18.00
2023-03-02T15:00:29.928Z,20.40
2023-03-02T15:02:58.806Z,21.30
2023-03-02T15:05:27.300Z,21.40
2023-03-02T15:07:58.635Z,19.30
2023-03-02T15:10:27.050Z,18.20
2023-03-02T15:12:55.278Z,14.10
2023-03-02T15:15:24.572Z,19.70
2023-03-02T15:17:52.612Z,29.10
2023-03-02T15:20:20.804Z,19.80
2023-03-02T15:22:49.102Z,17.70
2023-03-02T15:25:18.808Z,17.40
2023-03-02T15:27:47.066Z,16.90
2023-03-02T15:30:17.156Z,18.60
2023-03-02T15:32:45.272Z,20.60
2023-03-02T15:35:13.445Z,21.40
2023-03-02T15:37:41.418Z,21.30
2023-03-02T15:40:13.223Z,22.50
2023-03-02T15:42:41.337Z,14.70
2023-03-02T15:45:09.822Z,18.20
2023-03-02T15:47:37.910Z,16.00
2023-03-02T15:50:07.673Z,17.70
2023-03-02T15:52:35.792Z,19.70
2023-03-02T15:55:04.621Z,18.50
2023-03-02T15:57:39.007Z,16.90
2023-03-02T16:02:35.786Z,16.40
2023-03-02T16:05:04.338Z,17.60
2023-03-02T16:07:32.332Z,17.60
2023-03-02T16:10:00.370Z,15.30
2023-03-02T16:12:28.429Z,17.40
2023-03-02T16:14:56.674Z,17.20
2023-03-02T16:17:24.804Z,17.90
2023-03-02T16:19:52.994Z,24.90
2023-03-02T16:22:21.408Z,30.40
2023-03-02T16:24:49.955Z,31.70
2023-03-02T16:27:18.263Z,28.70
2023-03-02T16:29:46.282Z,25.50
2023-03-02T16:32:14.466Z,25.70
2023-03-02T16:34:42.540Z,23.30
2023-03-02T16:37:10.625Z,26.30
2023-03-02T16:39:38.681Z,29.40
2023-03-02T16:42:06.610Z,19.30
2023-03-02T16:44:34.723Z,22.20
2023-03-02T16:47:03.845Z,28.10
2023-03-02T16:49:31.864Z,29.20
2023-03-02T16:52:00.108Z,24.90
2023-03-02T16:54:28.367Z,23.20
2023-03-02T16:56:56.386Z,26.60
2023-03-02T16:59:24.436Z,30.60
2023-03-02T17:01:52.569Z,28.10
2023-03-02T17:04:21.450Z,34.70
2023-03-02T17:07:00.421Z,28.00
2023-03-02T17:09:30.300Z,21.80
2023-03-02T17:11:58.336Z,22.10
2023-03-02T17:14:27.517Z,23.90
2023-03-02T17:16:58.469Z,24.50
2023-03-02T17:19:26.555Z,22.40
2023-03-02T17:21:58.220Z,21.60
2023-03-02T17:24:28.014Z,22.40
2023-03-02T17:26:56.871Z,24.10
2023-03-02T17:29:24.936Z,23.50
2023-03-02T17:31:53.238Z,20.70
2023-03-02T17:34:21.798Z,21.40
2023-03-02T17:36:49.876Z,22.90
2023-03-02T17:39:17.875Z,21.00
2023-03-02T17:41:45.898Z,23.10
2023-03-02T17:44:13.985Z,19.80
2023-03-02T17:46:45.040Z,22.20
2023-03-02T17:49:13.386Z,20.70
2023-03-02T17:51:41.268Z,20.90
2023-03-02T17:54:09.501Z,21.60
2023-03-02T17:56:37.529Z,23.60
2023-03-02T17:59:05.666Z,26.00
2023-03-02T18:01:34.698Z,27.10
2023-03-02T18:04:03.096Z,24.80
2023-03-02T18:06:31.346Z,28.90
2023-03-02T18:08:59.410Z,22.30
2023-03-02T18:11:27.936Z,27.90
2023-03-02T18:13:55.963Z,22.20
2023-03-02T18:16:26.014Z,23.60
2023-03-02T18:18:56.128Z,24.20
2023-03-02T18:21:24.289Z,23.30
2023-03-02T18:23:52.454Z,24.60
2023-03-02T18:26:20.943Z,23.30
2023-03-02T18:28:48.918Z,21.20
2023-03-02T18:31:18.138Z,21.20
2023-03-02T18:33:46.932Z,27.00
2023-03-02T18:36:15.769Z,21.90
2023-03-02T18:38:44.143Z,23.90
2023-03-02T18:41:15.637Z,29.50
2023-03-02T18:43:43.992Z,27.90
2023-03-02T18:46:25.015Z,32.90
2023-03-02T18:48:54.812Z,36.80
2023-03-02T18:51:24.814Z,29.00
2023-03-02T18:53:53.521Z,29.10
2023-03-02T18:56:21.722Z,24.70
2023-03-02T18:58:50.958Z,24.50
2023-03-02T19:01:19.260Z,24.40
2023-03-02T19:03:48.433Z,20.40
2023-03-02T19:06:16.643Z,24.00
2023-03-02T19:08:44.684Z,23.60
2023-03-02T19:11:13.339Z,27.70
2023-03-02T19:13:41.385Z,26.30
2023-03-02T19:16:09.463Z,26.40
2023-03-02T19:18:37.706Z,26.80
2023-03-02T19:21:06.434Z,26.10
2023-03-02T19:23:34.376Z,26.60
2023-03-02T19:28:34.435Z,29.70
2023-03-02T19:31:06.036Z,27.10
2023-03-02T19:33:35.211Z,28.30
2023-03-02T19:36:04.661Z,33.10
2023-03-02T19:38:32.847Z,31.20
2023-03-02T19:41:01.444Z,31.00
2023-03-02T19:43:29.698Z,29.00
2023-03-02T19:45:57.749Z,29.60
2023-03-02T19:48:26.269Z,25.80
2023-03-02T19:50:54.354Z,26.20
2023-03-02T19:55:52.051Z,26.90
2023-03-02T19:58:22.698Z,28.90
2023-03-02T20:00:50.727Z,29.00
2023-03-02T20:03:18.776Z,30.20
2023-03-02T20:05:46.947Z,29.10
2023-03-02T20:08:16.267Z,32.50
2023-03-02T20:10:47.047Z,38.20
2023-03-02T20:13:17.504Z,41.40
2023-03-02T20:15:47.130Z,31.60
2023-03-02T20:18:19.264Z,37.70
2023-03-02T20:20:47.866Z,33.70
2023-03-02T20:23:17.131Z,29.10
2023-03-02T20:25:48.152Z,56.80
2023-03-02T20:28:22.284Z,30.20
2023-03-02T20:30:59.868Z,32.00
2023-03-02T20:33:34.706Z,29.20
2023-03-02T20:36:04.140Z,42.60
2023-03-02T20:38:58.992Z,31.20
2023-03-02T20:41:27.508Z,26.60
2023-03-02T20:43:55.915Z,23.70
2023-03-02T20:46:31.980Z,27.00
2023-03-02T20:49:01.130Z,23.20
2023-03-02T20:51:29.774Z,27.70
2023-03-02T20:53:57.901Z,26.60
2023-03-02T20:56:25.825Z,31.60
2023-03-02T21:01:23.055Z,29.60
2023-03-02T21:03:51.704Z,20.90
2023-03-02T21:06:19.925Z,24.20
2023-03-02T21:08:47.911Z,27.90
2023-03-02T21:11:19.883Z,20.80
2023-03-02T21:13:48.657Z,22.70
2023-03-02T21:16:22.412Z,24.10
2023-03-02T21:18:51.086Z,26.30
2023-03-02T21:21:20.225Z,29.90
2023-03-02T21:23:51.038Z,27.00
2023-03-02T21:28:47.865Z,25.90
2023-03-02T21:31:18.661Z,30.20
2023-03-02T21:33:49.043Z,30.80
2023-03-02T21:36:22.672Z,25.60
2023-03-02T21:38:52.332Z,26.60
2023-03-02T21:41:20.929Z,27.70
2023-03-02T21:43:50.056Z,29.00
2023-03-02T21:46:22.051Z,28.70
2023-03-02T21:48:50.961Z,27.30
2023-03-02T21:51:19.363Z,28.10
2023-03-02T21:53:47.528Z,30.30
2023-03-02T21:56:24.204Z,30.80
2023-03-02T21:58:56.410Z,32.80
2023-03-02T22:01:26.424Z,32.00
2023-03-02T22:03:55.381Z,31.20
2023-03-02T22:06:27.343Z,33.40
2023-03-02T22:08:56.825Z,32.20
2023-03-02T22:11:37.305Z,39.10
2023-03-02T22:14:17.183Z,37.60
2023-03-02T22:16:47.326Z,35.20
2023-03-02T22:19:28.285Z,37.70
2023-03-02T22:24:30.712Z,37.90
2023-03-02T22:27:25.059Z,39.70
2023-03-02T22:29:57.526Z,35.50
2023-03-02T22:32:38.009Z,36.30
2023-03-02T22:35:26.121Z,37.40
2023-03-02T22:38:11.460Z,32.10
2023-03-02T22:40:40.762Z,39.20
2023-03-02T22:43:30.226Z,41.20
2023-03-02T22:46:04.629Z,43.60
2023-03-02T22:51:30.405Z,40.70
2023-03-02T22:54:00.268Z,39.70
2023-03-02T22:56:36.680Z,41.90
2023-03-02T22:59:25.565Z,39.90
2023-03-02T23:02:01.952Z,37.20
2023-03-02T23:04:34.859Z,37.50
2023-03-02T23:07:26.666Z,37.80
2023-03-02T23:09:54.758Z,37.50
2023-03-02T23:12:26.871Z,36.60
2023-03-02T23:14:57.560Z,37.80
2023-03-02T23:17:39.971Z,37.20
2023-03-02T23:20:14.086Z,38.40
2023-03-02T23:22:43.192Z,39.30
2023-03-02T23:25:12.358Z,38.30
2023-03-02T23:27:40.392Z,32.90
2023-03-02T23:30:09.374Z,34.90
2023-03-02T23:32:37.457Z,34.00
2023-03-02T23:35:05.769Z,37.80
2023-03-02T23:37:33.754Z,39.20
2023-03-02T23:40:01.819Z,33.00
2023-03-02T23:42:29.922Z,42.00
2023-03-02T23:44:58.105Z,40.00
2023-03-02T23:47:26.017Z,42.10
2023-03-02T23:52:21.614Z,44.50
2023-03-02T23:54:50.774Z,38.10
2023-03-02T23:57:18.879Z,37.60
